Time;durP1;ratioP1;P1;durP2;ratioP2;P2;SDS_P1;SDS_P2;PMS_P1;PMS_P2;Temp;Humidity;BMP_temperature;BMP_pressure;BME280_temperature;BME280_humidity;BME280_pressure;Samples;Min_cycle;Max_cycle;Signal;HPM_P1;HPM_P2
2022/04/14 00:00:17;;;;;;;30.80;14.00;;;11.90;99.90;;;;;;5031537;28;20514;-51
2022/04/14 00:02:42;;;;;;;26.43;13.60;;;11.90;99.90;;;;;;5030994;28;20171;-51
2022/04/14 00:05:08;;;;;;;32.83;14.17;;;11.80;99.90;;;;;;5031305;28;20436;-51
2022/04/14 00:07:34;;;;;;;25.23;13.57;;;11.80;99.90;;;;;;5031423;28;20213;-51
2022/04/14 00:10:00;;;;;;;26.60;14.17;;;11.80;99.90;;;;;;5031908;28;20170;-52
2022/04/14 00:12:25;;;;;;;34.93;13.73;;;11.80;99.90;;;;;;5030750;28;20213;-51
2022/04/14 00:14:51;;;;;;;29.20;13.77;;;11.80;99.90;;;;;;5014190;28;20426;-51
2022/04/14 00:17:18;;;;;;;27.10;12.27;;;11.70;99.90;;;;;;5031573;28;20522;-51
2022/04/14 00:19:44;;;;;;;27.63;13.47;;;11.70;99.90;;;;;;5012626;28;20297;-51
2022/04/14 00:22:09;;;;;;;26.17;13.10;;;11.70;99.90;;;;;;5030324;28;20517;-60
2022/04/14 00:24:34;;;;;;;24.87;14.10;;;11.70;99.90;;;;;;5022918;28;20708;-51
2022/04/14 00:27:00;;;;;;;27.17;12.90;;;11.70;99.90;;;;;;5030196;28;20187;-52
2022/04/14 00:29:25;;;;;;;24.57;11.83;;;11.70;99.90;;;;;;5030615;28;20640;-51
2022/04/14 00:31:51;;;;;;;27.37;14.83;;;11.70;99.90;;;;;;5028569;28;20199;-52
2022/04/14 00:34:17;;;;;;;24.57;12.47;;;11.70;99.90;;;;;;5027563;28;20241;-52
2022/04/14 00:36:42;;;;;;;27.17;13.53;;;11.70;99.90;;;;;;5026238;28;20187;-52
2022/04/14 00:39:09;;;;;;;24.60;12.13;;;11.70;99.90;;;;;;5028394;28;20226;-52
2022/04/14 00:41:38;;;;;;;27.33;13.10;;;11.80;99.90;;;;;;5027876;28;20252;-52
2022/04/14 00:44:04;;;;;;;21.60;12.30;;;11.80;99.90;;;;;;5028980;28;20773;-51
2022/04/14 00:46:30;;;;;;;23.93;12.30;;;11.80;99.90;;;;;;5026927;28;20449;-52
2022/04/14 00:48:56;;;;;;;29.23;13.27;;;11.80;99.90;;;;;;5009095;28;20467;-51
2022/04/14 00:51:21;;;;;;;21.50;11.90;;;11.80;99.90;;;;;;4992121;28;20653;-52
2022/04/14 00:53:47;;;;;;;27.50;11.40;;;11.80;99.90;;;;;;5009356;28;20900;-51
2022/04/14 00:56:13;;;;;;;24.30;12.43;;;11.80;99.90;;;;;;5007535;28;20673;-52
2022/04/14 00:58:40;;;;;;;23.50;11.60;;;11.80;99.90;;;;;;5007850;28;20744;-51
2022/04/14 01:01:06;;;;;;;25.73;12.37;;;11.80;99.90;;;;;;5004676;28;20213;-51
2022/04/14 01:03:33;;;;;;;27.53;12.50;;;11.90;99.90;;;;;;5023042;28;20460;-51
2022/04/14 01:05:59;;;;;;;21.03;11.73;;;11.90;99.90;;;;;;5010619;28;20180;-51
2022/04/14 01:08:27;;;;;;;23.90;11.17;;;11.90;99.90;;;;;;5010594;28;20427;-52
2022/04/14 01:10:54;;;;;;;20.53;12.27;;;11.90;99.90;;;;;;5005507;28;20170;-52
2022/04/14 01:13:20;;;;;;;20.27;11.97;;;11.90;99.90;;;;;;5010478;28;20438;-52
2022/04/14 01:15:47;;;;;;;24.07;11.60;;;11.90;99.90;;;;;;5010408;28;20429;-52
2022/04/14 01:18:13;;;;;;;17.47;10.67;;;11.90;99.90;;;;;;5009972;28;20254;-52
2022/04/14 01:20:41;;;;;;;17.40;10.63;;;11.80;99.90;;;;;;5010082;28;20538;-52
2022/04/14 01:23:08;;;;;;;24.57;11.77;;;11.80;99.90;;;;;;5010399;28;20188;-52
2022/04/14 01:25:35;;;;;;;20.57;10.60;;;11.80;99.90;;;;;;5010518;28;20418;-51
2022/04/14 01:28:04;;;;;;;28.73;10.50;;;11.90;99.90;;;;;;5010548;28;20441;-51
2022/04/14 01:30:30;;;;;;;15.73;9.90;;;11.80;99.90;;;;;;5009544;28;20466;-51
2022/04/14 01:32:56;;;;;;;19.67;10.30;;;11.80;99.90;;;;;;5009953;28;20979;-51
2022/04/14 01:35:22;;;;;;;22.63;10.90;;;11.70;99.90;;;;;;5009673;28;20445;-51
2022/04/14 01:37:48;;;;;;;20.80;10.50;;;11.70;99.90;;;;;;5009984;28;20187;-51
2022/04/14 01:40:13;;;;;;;16.30;10.73;;;11.70;99.90;;;;;;5010238;28;20470;-51
2022/04/14 01:42:39;;;;;;;20.60;10.70;;;11.70;99.90;;;;;;5009859;28;20637;-51
2022/04/14 01:45:09;;;;;;;20.93;11.53;;;11.70;99.90;;;;;;4996667;28;20189;-51
2022/04/14 01:47:42;;;;;;;20.27;11.43;;;11.70;99.90;;;;;;5000172;28;20271;-52
2022/04/14 01:50:09;;;;;;;27.30;11.23;;;11.60;99.90;;;;;;5010063;28;20439;-51
2022/04/14 01:52:36;;;;;;;22.47;10.23;;;11.60;99.90;;;;;;5010374;28;20912;-52
2022/04/14 01:55:03;;;;;;;30.20;11.57;;;11.60;99.90;;;;;;5009317;28;20438;-51
2022/04/14 01:57:29;;;;;;;24.70;11.57;;;11.60;99.90;;;;;;5009682;28;20936;-52
2022/04/14 01:59:56;;;;;;;26.07;12.60;;;11.60;99.90;;;;;;5009893;28;20462;-52
2022/04/14 02:02:22;;;;;;;25.43;12.80;;;11.60;99.90;;;;;;5009650;28;20963;-52
2022/04/14 02:04:48;;;;;;;26.33;14.00;;;11.70;99.90;;;;;;5003070;28;20458;-52
2022/04/14 02:07:14;;;;;;;27.13;13.50;;;11.60;99.90;;;;;;5009537;28;20610;-51
2022/04/14 02:09:39;;;;;;;27.30;14.00;;;11.60;99.90;;;;;;5009687;28;20194;-51
2022/04/14 02:12:05;;;;;;;28.93;14.40;;;11.60;99.90;;;;;;5010129;28;20431;-52
2022/04/14 02:14:31;;;;;;;30.43;15.30;;;11.60;99.90;;;;;;5009663;28;20222;-51
2022/04/14 02:16:56;;;;;;;30.90;15.37;;;11.60;99.90;;;;;;5008955;28;20199;-52
2022/04/14 02:19:22;;;;;;;32.47;17.23;;;11.60;99.90;;;;;;5010053;28;20203;-51
2022/04/14 02:21:47;;;;;;;32.10;15.30;;;11.60;99.90;;;;;;5006610;28;20762;-52
2022/04/14 02:24:13;;;;;;;31.67;16.70;;;11.60;99.90;;;;;;5014210;28;20253;-51
2022/04/14 02:26:38;;;;;;;36.00;16.30;;;11.60;99.90;;;;;;5009575;28;20190;-51
2022/04/14 02:29:04;;;;;;;35.30;17.30;;;11.60;99.90;;;;;;5010237;28;20225;-52
2022/04/14 02:31:29;;;;;;;38.60;19.77;;;11.60;99.90;;;;;;5009814;28;20855;-52
2022/04/14 02:33:55;;;;;;;33.60;17.37;;;11.60;99.90;;;;;;5009753;28;20184;-51
2022/04/14 02:36:20;;;;;;;37.37;18.30;;;11.60;99.90;;;;;;5009298;28;20267;-51
2022/04/14 02:38:46;;;;;;;41.93;20.63;;;11.70;99.90;;;;;;5004373;28;20288;-51
2022/04/14 02:41:11;;;;;;;43.60;20.13;;;11.70;99.90;;;;;;4996718;28;20192;-51
2022/04/14 02:43:37;;;;;;;42.73;20.13;;;11.70;99.90;;;;;;5009559;28;20299;-52
2022/04/14 02:46:04;;;;;;;42.87;19.53;;;11.60;99.90;;;;;;5009429;28;20184;-51
2022/04/14 02:48:31;;;;;;;41.37;19.80;;;11.60;99.90;;;;;;5023428;28;20226;-54
2022/04/14 02:50:56;;;;;;;42.07;21.80;;;11.60;99.90;;;;;;5029196;28;20799;-51
2022/04/14 02:53:22;;;;;;;48.13;20.30;;;11.60;99.90;;;;;;5029040;28;20429;-52
2022/04/14 02:55:47;;;;;;;39.10;19.70;;;11.60;99.90;;;;;;5028455;28;20185;-51
2022/04/14 02:58:14;;;;;;;43.83;20.90;;;11.50;99.90;;;;;;5028529;28;20194;-51
2022/04/14 03:00:39;;;;;;;42.33;20.83;;;11.50;99.90;;;;;;5019902;28;20270;-52
2022/04/14 03:03:05;;;;;;;44.37;20.50;;;11.50;99.90;;;;;;5031749;28;20516;-51
2022/04/14 03:05:30;;;;;;;36.83;20.97;;;11.50;99.90;;;;;;5032194;28;20325;-53
2022/04/14 03:07:56;;;;;;;40.27;20.87;;;11.50;99.90;;;;;;5032236;28;20345;-53
2022/04/14 03:10:21;;;;;;;39.70;19.80;;;11.50;99.90;;;;;;5032929;28;20175;-53
2022/04/14 03:12:47;;;;;;;48.27;22.33;;;11.50;99.90;;;;;;5032307;28;20183;-53
2022/04/14 03:15:14;;;;;;;45.20;19.93;;;11.50;99.90;;;;;;5032940;28;20175;-53
2022/04/14 03:17:40;;;;;;;41.87;19.87;;;11.60;99.90;;;;;;5031781;28;20175;-53
2022/04/14 03:20:06;;;;;;;46.73;20.60;;;11.50;99.90;;;;;;5031685;28;20897;-53
2022/04/14 03:22:33;;;;;;;37.77;20.50;;;11.50;99.90;;;;;;5032478;28;20410;-53
2022/04/14 03:25:04;;;;;;;41.63;20.03;;;11.40;99.90;;;;;;5031575;28;20520;-53
2022/04/14 03:27:30;;;;;;;42.60;19.73;;;11.50;99.90;;;;;;5023808;28;21489;-53
2022/04/14 03:29:56;;;;;;;43.90;20.60;;;11.50;99.90;;;;;;5030315;28;20442;-53
2022/04/14 03:32:22;;;;;;;40.43;21.07;;;11.50;99.90;;;;;;5031982;28;20191;-53
2022/04/14 03:34:48;;;;;;;40.23;20.70;;;11.50;99.90;;;;;;5031558;28;20285;-53
2022/04/14 03:37:14;;;;;;;43.93;20.57;;;11.40;99.90;;;;;;5031469;28;20434;-53
2022/04/14 03:39:39;;;;;;;45.40;20.90;;;11.50;99.90;;;;;;5031401;28;20461;-53
2022/04/14 03:42:05;;;;;;;41.80;21.50;;;11.50;99.90;;;;;;5031159;28;20534;-53
2022/04/14 03:44:30;;;;;;;49.70;20.70;;;11.40;99.90;;;;;;5031225;28;20190;-53
2022/04/14 03:46:56;;;;;;;45.43;20.43;;;11.40;99.90;;;;;;5031856;28;20199;-53
2022/04/14 03:49:21;;;;;;;42.83;21.37;;;11.30;99.90;;;;;;5031653;28;20198;-53
2022/04/14 03:51:47;;;;;;;43.63;20.50;;;11.40;99.90;;;;;;5033683;28;20686;-53
2022/04/14 03:54:13;;;;;;;45.30;22.37;;;11.40;99.90;;;;;;5033245;28;20183;-53
2022/04/14 03:56:38;;;;;;;56.27;24.00;;;11.40;99.90;;;;;;5033240;28;20179;-53
2022/04/14 03:59:04;;;;;;;45.57;23.47;;;11.40;99.90;;;;;;5033077;28;20265;-53
2022/04/14 04:01:29;;;;;;;50.93;25.50;;;11.30;99.90;;;;;;5025527;28;20194;-53
2022/04/14 04:03:55;;;;;;;56.20;23.60;;;11.40;99.90;;;;;;5032869;28;20531;-53
2022/04/14 04:06:20;;;;;;;52.30;24.60;;;11.50;99.90;;;;;;5033177;28;20186;-53
2022/04/14 04:08:46;;;;;;;55.30;23.83;;;11.40;99.90;;;;;;5033649;28;20201;-53
2022/04/14 04:11:11;;;;;;;50.37;24.70;;;11.40;99.90;;;;;;5032909;28;20197;-52
2022/04/14 04:13:37;;;;;;;49.97;24.70;;;11.50;99.90;;;;;;5032772;28;20628;-53
2022/04/14 04:16:02;;;;;;;49.77;22.93;;;11.50;99.90;;;;;;5032579;28;20179;-52
2022/04/14 04:18:30;;;;;;;52.30;23.97;;;11.40;99.90;;;;;;5032842;28;20193;-53
2022/04/14 04:20:56;;;;;;;49.70;24.23;;;11.50;99.90;;;;;;5032720;28;20722;-53
2022/04/14 04:23:22;;;;;;;47.90;24.60;;;11.40;99.90;;;;;;5033019;28;20433;-53
2022/04/14 04:25:49;;;;;;;50.30;23.67;;;11.40;99.90;;;;;;5031811;28;20187;-53
2022/04/14 04:28:14;;;;;;;49.93;23.30;;;11.40;99.90;;;;;;5027760;28;20183;-53
2022/04/14 04:30:40;;;;;;;54.50;24.17;;;11.40;99.90;;;;;;5032820;28;20445;-53
2022/04/14 04:33:06;;;;;;;56.20;23.33;;;11.40;99.90;;;;;;5032354;28;20245;-53
2022/04/14 04:35:31;;;;;;;53.90;23.80;;;11.30;99.90;;;;;;5032828;28;20218;-53
2022/04/14 04:37:57;;;;;;;47.93;24.03;;;11.30;99.90;;;;;;5032654;28;20249;-52
2022/04/14 04:40:22;;;;;;;52.13;24.60;;;11.40;99.90;;;;;;5032471;28;20202;-53
2022/04/14 04:42:48;;;;;;;55.00;26.10;;;11.30;99.90;;;;;;5032315;28;20233;-53
2022/04/14 04:45:14;;;;;;;57.67;26.93;;;11.40;99.90;;;;;;5033107;28;20645;-53
2022/04/14 04:47:39;;;;;;;56.73;25.00;;;11.40;99.90;;;;;;5032471;28;20317;-53
2022/04/14 04:50:07;;;;;;;65.97;26.13;;;11.40;99.90;;;;;;5032030;28;20214;-52
2022/04/14 04:52:37;;;;;;;61.00;25.97;;;11.40;99.90;;;;;;5030211;28;20191;-52
2022/04/14 04:55:03;;;;;;;66.73;28.37;;;11.40;99.90;;;;;;5029845;28;20422;-52
2022/04/14 04:57:28;;;;;;;68.77;27.80;;;11.40;99.90;;;;;;5030806;28;20433;-52
2022/04/14 04:59:54;;;;;;;67.37;29.23;;;11.40;99.90;;;;;;5030768;28;20464;-52
2022/04/14 05:02:19;;;;;;;63.83;26.80;;;11.40;99.90;;;;;;5026352;28;20266;-53
2022/04/14 05:04:45;;;;;;;62.63;28.93;;;11.40;99.90;;;;;;5029783;28;20188;-54
2022/04/14 05:07:10;;;;;;;62.97;28.70;;;11.40;99.90;;;;;;5030138;28;20198;-52
2022/04/14 05:09:36;;;;;;;58.70;28.10;;;11.50;99.90;;;;;;5030463;28;20193;-52
2022/04/14 05:12:01;;;;;;;65.53;28.30;;;11.40;99.90;;;;;;5029912;28;20179;-53
2022/04/14 05:14:27;;;;;;;64.47;30.47;;;11.40;99.90;;;;;;5030454;28;20281;-53
2022/04/14 05:16:52;;;;;;;61.97;29.63;;;11.40;99.90;;;;;;5030009;28;20217;-53
2022/04/14 05:19:18;;;;;;;61.30;29.50;;;11.40;99.90;;;;;;5030034;28;21005;-52
2022/04/14 05:21:45;;;;;;;66.50;29.70;;;11.40;99.90;;;;;;5030250;28;20294;-52
2022/04/14 05:24:10;;;;;;;63.00;30.00;;;11.40;99.90;;;;;;5034850;28;20189;-53
2022/04/14 05:26:36;;;;;;;69.97;30.77;;;11.40;99.90;;;;;;5029838;28;20425;-52
2022/04/14 05:29:02;;;;;;;74.47;30.87;;;11.40;99.90;;;;;;5030732;28;20501;-52
2022/04/14 05:31:28;;;;;;;70.77;31.17;;;11.50;99.90;;;;;;5029708;28;20550;-51
2022/04/14 05:33:53;;;;;;;61.00;29.83;;;11.50;99.90;;;;;;5029930;28;20402;-53
2022/04/14 05:36:21;;;;;;;65.23;30.87;;;11.50;99.90;;;;;;5029733;28;20445;-52
2022/04/14 05:38:46;;;;;;;63.83;30.63;;;11.50;99.90;;;;;;5030031;28;21736;-53
2022/04/14 05:41:12;;;;;;;66.37;30.43;;;11.50;99.90;;;;;;5029824;28;20435;-53
2022/04/14 05:43:37;;;;;;;62.90;31.53;;;11.50;99.90;;;;;;5030248;28;20708;-52
2022/04/14 05:46:03;;;;;;;74.33;32.57;;;11.60;99.90;;;;;;5030032;28;20182;-53
2022/04/14 05:48:29;;;;;;;73.47;30.23;;;11.50;99.90;;;;;;5029024;28;20250;-53
2022/04/14 05:50:54;;;;;;;70.37;30.90;;;11.60;99.90;;;;;;5029978;28;20178;-53
2022/04/14 05:53:25;;;;;;;66.60;32.13;;;11.60;99.90;;;;;;5030190;28;20184;-53
2022/04/14 05:55:50;;;;;;;66.83;30.70;;;11.60;99.90;;;;;;5029914;28;20596;-53
2022/04/14 05:58:16;;;;;;;58.43;32.03;;;11.60;99.90;;;;;;5029559;28;20501;-53
2022/04/14 06:00:42;;;;;;;68.73;31.10;;;11.70;99.90;;;;;;5029481;28;20214;-53
2022/04/14 06:03:07;;;;;;;58.90;29.53;;;11.80;99.90;;;;;;5011908;28;20462;-53
2022/04/14 06:05:34;;;;;;;57.60;28.97;;;11.80;99.90;;;;;;5030075;28;20168;-53
2022/04/14 06:08:00;;;;;;;66.27;30.97;;;11.80;99.90;;;;;;5029497;28;20524;-53
2022/04/14 06:10:27;;;;;;;57.67;29.17;;;11.80;99.90;;;;;;5029791;28;20483;-53
2022/04/14 06:12:55;;;;;;;61.90;30.60;;;11.80;99.90;;;;;;5029556;28;20180;-53
2022/04/14 06:15:20;;;;;;;53.90;28.33;;;11.90;99.90;;;;;;5026373;28;20785;-53
2022/04/14 06:17:46;;;;;;;50.63;27.73;;;11.90;99.90;;;;;;5029909;28;20433;-53
2022/04/14 06:20:12;;;;;;;55.23;29.50;;;12.00;99.90;;;;;;5029449;28;20353;-53
2022/04/14 06:22:39;;;;;;;50.50;28.60;;;12.00;99.90;;;;;;5029568;28;20598;-53
2022/04/14 06:25:06;;;;;;;50.23;29.80;;;12.00;99.90;;;;;;5028227;28;20496;-53
2022/04/14 06:27:32;;;;;;;50.23;27.47;;;12.00;99.90;;;;;;5024331;28;21559;-52
2022/04/14 06:29:58;;;;;;;48.23;25.77;;;12.00;99.90;;;;;;5033212;28;20453;-53
2022/04/14 06:32:23;;;;;;;46.20;26.37;;;12.00;99.90;;;;;;5029614;28;20433;-52
2022/04/14 06:34:49;;;;;;;53.60;28.00;;;12.10;99.90;;;;;;5030021;28;20179;-52
2022/04/14 06:37:14;;;;;;;47.20;26.63;;;12.10;99.90;;;;;;5033963;28;20644;-52
2022/04/14 06:39:40;;;;;;;50.07;27.70;;;12.10;99.90;;;;;;5033305;28;20209;-53
2022/04/14 06:42:06;;;;;;;53.57;28.90;;;12.10;99.90;;;;;;5033180;28;20541;-53
2022/04/14 06:44:31;;;;;;;54.40;28.63;;;12.10;99.90;;;;;;5033165;28;20183;-53
2022/04/14 06:46:57;;;;;;;54.17;30.13;;;12.10;99.90;;;;;;5032403;28;20965;-53
2022/04/14 06:49:22;;;;;;;51.13;27.53;;;12.20;99.90;;;;;;5032811;28;20222;-53
2022/04/14 06:51:48;;;;;;;52.60;28.70;;;12.20;99.90;;;;;;5029801;28;20185;-53
2022/04/14 06:54:13;;;;;;;49.40;26.93;;;12.20;99.90;;;;;;5032594;28;20237;-54
2022/04/14 06:56:39;;;;;;;47.90;28.37;;;12.30;99.90;;;;;;5033578;28;20712;-53
2022/04/14 06:59:04;;;;;;;53.23;28.77;;;12.30;99.90;;;;;;5033065;28;20315;-53
2022/04/14 07:01:30;;;;;;;53.23;27.60;;;12.30;99.90;;;;;;5031902;28;20185;-53
2022/04/14 07:03:55;;;;;;;46.87;27.03;;;12.40;99.90;;;;;;5032734;28;20625;-53
2022/04/14 07:06:22;;;;;;;49.63;27.50;;;12.50;99.90;;;;;;5033022;28;20217;-56
2022/04/14 07:08:48;;;;;;;55.20;26.83;;;12.60;99.90;;;;;;5014345;28;20195;-53
2022/04/14 07:11:13;;;;;;;44.27;25.57;;;12.60;99.90;;;;;;5032419;28;20432;-52
2022/04/14 07:13:39;;;;;;;43.50;27.13;;;12.60;99.90;;;;;;5024689;28;20213;-52
2022/04/14 07:16:05;;;;;;;43.50;25.77;;;12.70;99.90;;;;;;5032205;28;20187;-53
2022/04/14 07:18:30;;;;;;;45.43;26.13;;;12.70;99.90;;;;;;5030269;28;20258;-52
2022/04/14 07:20:56;;;;;;;47.20;25.60;;;12.80;99.90;;;;;;5031558;28;20198;-53
2022/04/14 07:23:22;;;;;;;45.53;25.97;;;12.70;99.90;;;;;;5028477;28;20191;-53
2022/04/14 07:25:47;;;;;;;51.23;27.53;;;12.80;99.90;;;;;;5036974;28;20719;-52
2022/04/14 07:28:14;;;;;;;45.17;26.13;;;12.80;99.90;;;;;;5032559;28;20190;-53
2022/04/14 07:30:40;;;;;;;41.20;25.77;;;12.90;99.90;;;;;;5032473;28;20865;-53
2022/04/14 07:33:05;;;;;;;46.57;25.77;;;13.00;99.90;;;;;;5031884;28;20437;-52
2022/04/14 07:35:32;;;;;;;51.60;28.70;;;12.90;99.90;;;;;;5031795;28;20711;-52
2022/04/14 07:37:58;;;;;;;48.57;29.50;;;13.00;99.90;;;;;;5031904;28;20248;-52
2022/04/14 07:40:24;;;;;;;64.30;32.87;;;12.90;99.90;;;;;;5030923;28;20458;-53
2022/04/14 07:42:50;;;;;;;47.20;30.00;;;12.90;99.90;;;;;;5032150;28;20902;-52
2022/04/14 07:45:16;;;;;;;57.90;30.93;;;13.00;99.90;;;;;;5014303;28;20437;-53
2022/04/14 07:47:43;;;;;;;53.20;32.53;;;13.00;99.90;;;;;;5031098;28;20223;-53
2022/04/14 07:50:14;;;;;;;55.20;31.43;;;13.00;99.90;;;;;;5014553;28;20434;-53
2022/04/14 07:52:44;;;;;;;58.70;34.07;;;13.00;99.90;;;;;;5023975;28;20469;-52
2022/04/14 07:55:10;;;;;;;58.50;35.20;;;13.00;99.90;;;;;;5032777;28;20441;-52
2022/04/14 07:57:35;;;;;;;55.07;34.00;;;13.00;99.90;;;;;;5013692;28;20425;-53
2022/04/14 08:00:01;;;;;;;58.47;33.97;;;13.00;99.90;;;;;;5011163;28;20268;-52
2022/04/14 08:02:26;;;;;;;64.70;36.07;;;13.10;99.90;;;;;;5020258;28;20213;-52
2022/04/14 08:04:52;;;;;;;59.60;35.23;;;13.20;99.90;;;;;;5024535;28;20183;-52
2022/04/14 08:07:17;;;;;;;54.33;35.77;;;13.40;99.90;;;;;;5028130;28;20308;-52
2022/04/14 08:09:44;;;;;;;56.20;33.80;;;13.60;99.90;;;;;;5029680;28;20192;-53
2022/04/14 08:12:10;;;;;;;59.10;35.23;;;13.90;99.90;;;;;;5013543;28;20199;-57
2022/04/14 08:14:35;;;;;;;57.03;35.90;;;14.10;99.90;;;;;;5029455;28;20516;-52
2022/04/14 08:17:04;;;;;;;52.50;33.33;;;14.40;99.90;;;;;;5032163;28;20191;-51
2022/04/14 08:19:30;;;;;;;47.73;30.67;;;14.60;1.00;;;;;;5031226;28;20229;-52
2022/04/14 08:21:56;;;;;;;46.70;30.33;;;14.80;1.00;;;;;;5031752;28;20756;-51
2022/04/14 08:24:22;;;;;;;45.70;30.33;;;14.90;99.90;;;;;;5013525;28;20437;-51
2022/04/14 08:26:48;;;;;;;41.77;28.20;;;14.80;98.30;;;;;;5030749;28;20190;-52
2022/04/14 08:29:14;;;;;;;38.80;25.43;;;14.50;99.90;;;;;;5029862;28;20445;-51
2022/04/14 08:31:40;;;;;;;43.90;26.57;;;14.20;99.90;;;;;;5029083;28;20191;-52
2022/04/14 08:34:06;;;;;;;47.30;27.23;;;14.10;99.90;;;;;;5024687;28;20647;-52
2022/04/14 08:36:37;;;;;;;38.47;27.27;;;13.90;1.00;;;;;;5030508;28;20452;-52
2022/04/14 08:39:02;;;;;;;41.00;26.60;;;13.80;1.00;;;;;;5014100;28;20519;-51
2022/04/14 08:41:32;;;;;;;41.50;27.33;;;13.80;1.00;;;;;;5026648;28;20421;-52
2022/04/14 08:44:02;;;;;;;48.70;26.63;;;13.80;26.30;;;;;;5018626;28;20237;-52
2022/04/14 08:46:29;;;;;;;41.07;26.37;;;13.80;1.00;;;;;;5009614;28;20467;-52
2022/04/14 08:49:05;;;;;;;41.60;25.07;;;13.90;1.00;;;;;;5029435;28;20475;-52
2022/04/14 08:51:36;;;;;;;32.77;22.63;;;14.00;99.90;;;;;;5024399;28;20449;-52
2022/04/14 08:54:02;;;;;;;34.10;23.30;;;14.00;99.90;;;;;;5049143;28;20854;-51
2022/04/14 08:56:28;;;;;;;33.60;23.80;;;14.10;99.90;;;;;;5030871;28;20429;-52
2022/04/14 08:58:57;;;;;;;35.27;22.27;;;14.30;99.90;;;;;;5038186;28;20546;-54
2022/04/14 09:01:26;;;;;;;30.50;22.17;;;14.40;97.70;;;;;;5030252;28;20430;-52
2022/04/14 09:03:58;;;;;;;33.77;21.73;;;14.60;27.00;;;;;;5029906;28;21973;-51
2022/04/14 09:06:27;;;;;;;35.03;21.40;;;14.90;1.00;;;;;;5025991;28;20512;-51
2022/04/14 09:08:53;;;;;;;30.13;21.40;;;15.00;1.00;;;;;;5012943;28;20958;-51
2022/04/14 09:11:18;;;;;;;28.10;19.90;;;15.30;1.00;;;;;;5030695;28;20470;-52
2022/04/14 09:13:45;;;;;;;30.77;21.25;;;15.70;1.00;;;;;;5018463;28;20446;-52
2022/04/14 09:16:11;;;;;;;37.23;22.90;;;15.80;1.00;;;;;;5034450;28;20193;-52
2022/04/14 09:18:36;;;;;;;31.70;21.30;;;16.00;1.00;;;;;;5050375;28;20791;-51
2022/04/14 09:21:06;;;;;;;28.50;19.00;;;16.00;1.00;;;;;;5044263;28;20190;-51
2022/04/14 09:23:32;;;;;;;25.98;18.83;;;16.00;1.00;;;;;;5030552;28;20426;-52
2022/04/14 09:26:04;;;;;;;26.20;17.33;;;16.10;1.00;;;;;;5030840;28;20210;-51
2022/04/14 09:28:30;;;;;;;24.10;17.43;;;16.20;1.00;;;;;;5031105;28;20410;-51
2022/04/14 09:31:07;;;;;;;24.73;18.13;;;16.30;1.00;;;;;;5024853;28;20445;-51
2022/04/14 09:33:36;;;;;;;24.90;17.17;;;16.10;1.00;;;;;;5050310;28;20403;-51
2022/04/14 09:36:18;;;;;;;27.50;16.90;;;16.00;1.00;;;;;;5050398;28;20432;-51
2022/04/14 09:38:57;;;;;;;26.03;17.30;;;16.10;1.00;;;;;;5050685;28;20405;-51
2022/04/14 09:41:28;;;;;;;26.60;18.47;;;16.30;1.00;;;;;;5039216;28;20437;-51
2022/04/14 09:43:55;;;;;;;25.60;17.77;;;16.40;1.00;;;;;;5030044;28;20421;-50
2022/04/14 09:46:20;;;;;;;24.33;18.07;;;16.40;1.00;;;;;;5030237;28;20830;-51
2022/04/14 09:49:08;;;;;;;24.63;18.37;;;16.40;1.00;;;;;;5019506;28;20514;-51
2022/04/14 09:51:40;;;;;;;20.80;15.53;;;16.60;1.00;;;;;;5031093;28;20198;-51
2022/04/14 09:54:07;;;;;;;24.73;16.67;;;16.60;1.00;;;;;;5029855;28;20453;-50
2022/04/14 09:56:47;;;;;;;26.73;16.27;;;16.60;1.00;;;;;;5016467;28;20447;-51
2022/04/14 09:59:18;;;;;;;20.10;14.93;;;16.60;1.00;;;;;;5028258;28;20559;-50
2022/04/14 10:01:44;;;;;;;21.80;16.70;;;16.60;1.00;;;;;;5010935;28;20488;-50
2022/04/14 10:04:29;;;;;;;25.63;18.20;;;16.50;1.00;;;;;;5022998;28;20426;-50
2022/04/14 10:07:14;;;;;;;23.30;17.53;;;16.50;1.00;;;;;;5030035;28;20420;-51
2022/04/14 10:09:42;;;;;;;27.70;17.50;;;16.50;1.00;;;;;;5031309;28;20440;-51
2022/04/14 10:12:17;;;;;;;22.70;18.10;;;16.50;1.00;;;;;;5029780;28;20456;-51
2022/04/14 10:15:05;;;;;;;28.70;18.93;;;16.60;1.00;;;;;;5029948;28;20440;-50
2022/04/14 10:17:38;;;;;;;27.67;19.73;;;17.10;1.00;;;;;;5029916;28;20513;-51
2022/04/14 10:20:06;;;;;;;23.77;18.07;;;17.70;1.00;;;;;;5027223;28;20480;-51
2022/04/14 10:22:33;;;;;;;23.10;17.20;;;18.30;99.90;;;;;;5033321;28;20450;-51
2022/04/14 10:25:00;;;;;;;27.73;17.90;;;18.70;99.90;;;;;;5030324;28;20505;-51
2022/04/14 10:27:26;;;;;;;22.30;17.42;;;19.20;99.90;;;;;;5028923;28;20417;-51
2022/04/14 10:29:52;;;;;;;23.83;17.90;;;19.50;99.90;;;;;;5025247;28;20249;-51
2022/04/14 10:32:19;;;;;;;24.10;17.37;;;19.30;99.90;;;;;;5015398;28;21014;-52
2022/04/14 10:34:46;;;;;;;21.30;15.33;;;19.40;99.90;;;;;;5025972;28;20461;-50
2022/04/14 10:37:19;;;;;;;18.47;14.90;;;19.80;99.90;;;;;;5031612;28;20465;-50
2022/04/14 10:39:51;;;;;;;21.20;15.70;;;19.80;99.90;;;;;;5029873;28;20465;-51
2022/04/14 10:42:23;;;;;;;21.80;16.20;;;19.80;99.90;;;;;;5030043;28;20504;-50
2022/04/14 10:44:51;;;;;;;25.40;17.97;;;20.20;99.90;;;;;;5029949;28;20520;-51
2022/04/14 10:47:55;;;;;;;23.90;14.63;;;19.80;99.90;;;;;;5029672;28;21006;-50
2022/04/14 10:50:22;;;;;;;19.00;14.80;;;19.40;99.90;;;;;;5029592;28;20425;-50
2022/04/14 10:53:19;;;;;;;18.23;14.70;;;19.30;99.90;;;;;;5029604;28;20456;-50
2022/04/14 10:55:47;;;;;;;21.87;15.77;;;19.10;99.90;;;;;;4964235;28;21032;-51
2022/04/14 10:58:38;;;;;;;18.73;14.70;;;18.80;99.90;;;;;;5024224;28;20802;-50
2022/04/14 11:01:04;;;;;;;17.53;13.63;;;18.70;99.90;;;;;;5029742;28;20442;-50
2022/04/14 11:03:47;;;;;;;13.23;10.73;;;18.70;99.90;;;;;;5029697;28;20425;-50
2022/04/14 11:06:41;;;;;;;16.77;12.60;;;19.20;99.90;;;;;;5024962;28;20205;-51
2022/04/14 11:09:08;;;;;;;19.93;14.07;;;19.30;99.90;;;;;;5016629;28;20434;-50
2022/04/14 11:11:59;;;;;;;13.77;11.70;;;18.90;99.90;;;;;;5030425;28;20402;-51
2022/04/14 11:14:25;;;;;;;16.80;11.53;;;19.50;99.90;;;;;;5029929;28;20417;-51
2022/04/14 11:16:50;;;;;;;15.47;12.03;;;19.70;99.90;;;;;;5029546;28;20436;-52
2022/04/14 11:19:19;;;;;;;13.20;11.37;;;18.90;99.90;;;;;;5029212;28;20203;-50
2022/04/14 11:22:01;;;;;;;12.80;10.27;;;18.50;99.90;;;;;;5031523;28;20632;-50
2022/04/14 11:24:35;;;;;;;14.57;10.87;;;18.20;99.90;;;;;;5044312;28;20416;-50
2022/04/14 11:27:13;;;;;;;13.90;10.80;;;18.10;99.90;;;;;;5035274;28;20471;-50
2022/04/14 11:29:44;;;;;;;15.47;10.67;;;17.70;99.90;;;;;;5033250;28;20413;-50
2022/04/14 11:32:10;;;;;;;13.40;9.60;;;17.30;99.90;;;;;;5033320;28;20528;-51
2022/04/14 11:34:37;;;;;;;14.93;9.40;;;17.10;99.90;;;;;;5032799;28;20417;-51
2022/04/14 11:37:23;;;;;;;14.27;9.63;;;17.00;99.90;;;;;;5032482;28;20405;-51
2022/04/14 11:40:21;;;;;;;13.23;9.60;;;16.70;99.90;;;;;;5032488;28;20510;-51
2022/04/14 11:42:49;;;;;;;10.77;8.30;;;17.00;99.90;;;;;;5032669;28;20414;-51
2022/04/14 11:45:22;;;;;;;12.57;8.97;;;18.40;99.90;;;;;;5032797;28;20422;-51
2022/04/14 11:47:48;;;;;;;10.57;7.93;;;20.10;99.90;;;;;;5032342;28;20481;-50
2022/04/14 11:50:20;;;;;;;11.47;8.30;;;21.10;99.90;;;;;;5032859;28;20472;-51
2022/04/14 11:52:46;;;;;;;10.47;7.83;;;21.20;99.90;;;;;;5033070;28;20463;-51
2022/04/14 11:55:12;;;;;;;10.63;7.77;;;20.40;99.90;;;;;;5035636;28;20927;-51
2022/04/14 11:57:39;;;;;;;15.63;8.40;;;19.70;99.90;;;;;;5031892;28;20637;-51
2022/04/14 12:00:10;;;;;;;11.27;7.90;;;20.00;99.90;;;;;;5032397;28;20202;-51
2022/04/14 12:02:36;;;;;;;12.30;8.97;;;21.00;99.90;;;;;;5032176;28;20426;-51
2022/04/14 12:05:03;;;;;;;11.63;8.53;;;21.90;99.90;;;;;;5032148;28;20436;-50
2022/04/14 12:07:35;;;;;;;9.23;8.15;;;22.10;99.90;;;;;;5021341;28;20448;-51
2022/04/14 12:10:03;;;;;;;13.43;8.17;;;21.70;99.90;;;;;;5028528;28;20199;-51
2022/04/14 12:12:33;;;;;;;9.13;7.70;;;20.90;99.90;;;;;;5031271;28;20460;-51
2022/04/14 12:15:00;;;;;;;12.03;8.53;;;20.00;99.90;;;;;;5029547;28;20437;-50
2022/04/14 12:17:26;;;;;;;13.93;8.73;;;19.10;99.90;;;;;;5027884;28;21187;-51
2022/04/14 12:20:03;;;;;;;11.03;8.17;;;18.40;99.90;;;;;;5031419;28;20473;-51
2022/04/14 12:22:31;;;;;;;12.10;9.03;;;18.10;99.90;;;;;;5031036;28;20437;-51
2022/04/14 12:24:59;;;;;;;10.13;8.03;;;17.90;99.90;;;;;;5031371;28;20512;-50
2022/04/14 12:27:34;;;;;;;9.57;7.37;;;17.60;99.90;;;;;;5031763;28;20443;-51
2022/04/14 12:30:14;;;;;;;10.13;7.30;;;17.40;99.90;;;;;;5025758;28;20449;-51